Time;durP1;ratioP1;P1;durP2;ratioP2;P2;SDS_P1;SDS_P2;PMS_P1;PMS_P2;Temp;Humidity;BMP_temperature;BMP_pressure;BME280_temperature;BME280_humidity;BME280_pressure;Samples;Min_cycle;Max_cycle;Signal;HPM_P1;HPM_P2
2022/04/25 00:02:00;;;;;;;18.88;9.13;;;13.60;99.90;;;13.92;62.43;100890.88;5056424;28;20129;-69
2022/04/25 00:04:29;;;;;;;16.60;9.07;;;13.50;99.90;;;13.93;62.13;100896.19;5074218;28;20036;-69
2022/04/25 00:06:58;;;;;;;14.70;9.00;;;13.50;99.90;;;13.85;62.20;100887.47;5074052;28;20048;-69
2022/04/25 00:09:26;;;;;;;17.15;9.60;;;13.50;99.90;;;13.79;62.24;100890.22;5073817;28;20050;-69
2022/04/25 00:11:54;;;;;;;15.10;9.15;;;13.40;99.90;;;13.85;62.31;100895.44;5073796;28;20036;-69
2022/04/25 00:14:23;;;;;;;13.30;8.98;;;13.40;99.90;;;13.83;62.12;100885.72;5073788;28;20068;-69
2022/04/25 00:16:56;;;;;;;18.15;9.63;;;13.40;99.90;;;13.91;62.18;100891.78;5073995;28;20041;-69
2022/04/25 00:19:26;;;;;;;12.98;8.73;;;13.50;99.90;;;13.78;62.37;100891.09;5073696;28;20048;-69
2022/04/25 00:21:54;;;;;;;12.43;9.50;;;13.40;99.90;;;13.73;62.20;100881.47;5074005;28;20049;-69
2022/04/25 00:24:23;;;;;;;14.52;9.82;;;13.40;99.90;;;13.70;62.63;100895.72;5055926;28;20542;-69
2022/04/25 00:26:51;;;;;;;11.00;8.40;;;13.30;99.90;;;13.76;62.47;100887.63;5073280;28;20078;-69
2022/04/25 00:29:20;;;;;;;15.30;9.77;;;13.40;99.90;;;13.74;62.64;100885.91;5073475;28;20055;-69
2022/04/25 00:31:48;;;;;;;14.38;9.65;;;13.30;99.90;;;13.43;62.50;100851.84;5073485;28;20117;-69
2022/04/25 00:34:17;;;;;;;11.07;9.38;;;13.30;99.90;;;13.73;62.73;100894.75;5073688;28;20045;-69
2022/04/25 00:36:46;;;;;;;17.58;9.13;;;13.30;99.90;;;13.68;62.79;100893.97;5073350;28;20033;-69
2022/04/25 00:39:15;;;;;;;16.50;10.10;;;13.30;99.90;;;13.68;62.92;100897.50;5073368;28;20052;-69
2022/04/25 00:41:44;;;;;;;14.50;10.93;;;13.30;99.90;;;13.61;63.09;100889.66;5073289;28;20127;-69
2022/04/25 00:44:13;;;;;;;11.48;9.23;;;13.30;99.90;;;13.63;63.04;100895.84;5073527;28;20461;-69
2022/04/25 00:46:41;;;;;;;19.52;9.35;;;13.20;99.90;;;13.69;63.06;100901.91;5073189;28;20376;-69
2022/04/25 00:49:10;;;;;;;15.40;9.63;;;13.30;99.90;;;13.58;62.84;100895.91;5073455;28;20051;-69
2022/04/25 00:51:38;;;;;;;17.80;10.30;;;13.30;99.90;;;13.60;62.84;100896.75;5073016;28;20064;-69
2022/04/25 00:54:09;;;;;;;13.95;9.50;;;13.20;99.90;;;13.53;62.72;100874.72;5055449;28;20502;-69
2022/04/25 00:56:39;;;;;;;16.83;10.13;;;13.20;99.90;;;13.01;62.42;100782.53;5073431;28;20398;-69
2022/04/25 00:59:08;;;;;;;15.52;9.35;;;13.20;99.90;;;13.61;62.62;100889.66;5073658;28;20040;-69
2022/04/25 01:01:36;;;;;;;21.23;9.68;;;13.20;99.90;;;12.79;62.66;100733.38;5073111;28;20560;-69
2022/04/25 01:04:05;;;;;;;16.13;10.35;;;13.20;99.90;;;13.61;62.55;100885.22;5073250;28;20541;-69
2022/04/25 01:06:34;;;;;;;11.82;9.57;;;13.20;99.90;;;13.66;62.17;100883.38;5073062;28;20044;-69
2022/04/25 01:09:02;;;;;;;16.25;9.85;;;13.30;99.90;;;13.55;62.54;100872.91;5073287;28;20490;-69
2022/04/25 01:11:32;;;;;;;15.30;9.73;;;13.20;99.90;;;13.51;62.79;100873.00;5073187;28;20417;-69
2022/04/25 01:14:12;;;;;;;15.38;10.32;;;13.20;99.90;;;13.56;62.55;100874.69;5073231;28;20452;-69
2022/04/25 01:16:41;;;;;;;18.27;10.02;;;13.20;99.90;;;13.65;62.40;100876.28;5073249;28;20366;-69
2022/04/25 01:19:10;;;;;;;14.65;9.75;;;13.20;99.90;;;13.53;62.53;100877.38;5072255;28;20162;-69
2022/04/25 01:21:44;;;;;;;15.52;10.10;;;13.20;99.90;;;13.56;62.75;100880.00;5072901;28;20032;-69
2022/04/25 01:27:18;;;;;;;17.48;10.32;;;13.20;99.90;;;13.51;62.61;100865.88;5072939;28;20162;-69
2022/04/25 01:29:49;;;;;;;16.38;10.82;;;13.20;99.90;;;13.51;62.76;100873.00;5072869;28;20036;-69
2022/04/25 01:32:20;;;;;;;13.45;10.40;;;13.10;99.90;;;13.49;62.82;100878.31;5074530;28;20131;-69
2022/04/25 01:34:49;;;;;;;;;;;13.10;99.90;;;13.58;62.68;100875.53;5077221;28;20101;-69
2022/04/25 01:37:20;;;;;;;15.27;10.57;;;13.20;99.90;;;13.61;62.04;100876.38;5077302;28;19964;-69
2022/04/25 01:39:51;;;;;;;16.50;10.32;;;13.30;99.90;;;13.40;62.14;100866.94;5075783;28;20052;-69
2022/04/25 01:42:21;;;;;;;17.83;10.98;;;13.10;99.90;;;13.45;62.80;100871.28;5076711;28;20048;-70
2022/04/25 01:44:50;;;;;;;14.95;10.05;;;13.10;99.90;;;13.47;62.05;100876.59;5076919;28;20045;-69
2022/04/25 01:47:20;;;;;;;10.77;9.35;;;13.10;99.90;;;13.42;62.50;100871.34;5076774;28;20117;-69
2022/04/25 01:49:48;;;;;;;14.70;9.85;;;13.00;99.90;;;13.26;62.74;100845.91;5076568;28;20118;-69
2022/04/25 01:52:23;;;;;;;16.60;10.15;;;13.00;99.90;;;13.47;61.78;100858.00;5076838;28;20470;-69
2022/04/25 01:54:53;;;;;;;12.63;9.23;;;13.10;99.90;;;13.46;61.58;100870.41;5076445;28;20098;-69
2022/04/25 01:57:21;;;;;;;13.25;9.38;;;13.00;99.90;;;13.49;61.82;100873.00;5076388;28;20043;-70
2022/04/25 01:59:51;;;;;;;13.43;9.60;;;13.10;99.90;;;13.49;61.96;100870.34;5076554;28;20036;-69
2022/04/25 02:02:22;;;;;;;13.50;9.95;;;13.10;99.90;;;13.34;61.62;100848.44;5076312;28;20109;-69
2022/04/25 02:04:52;;;;;;;16.30;9.80;;;13.10;99.90;;;13.47;61.38;100871.28;5076277;28;20094;-70
2022/04/25 02:07:21;;;;;;;15.32;9.90;;;13.10;99.90;;;13.37;61.23;100867.03;5076112;28;20091;-69
2022/04/25 02:09:49;;;;;;;16.08;9.88;;;13.00;99.90;;;13.41;61.36;100869.59;5076079;28;20049;-69
2022/04/25 02:12:19;;;;;;;16.35;10.30;;;13.00;99.90;;;13.46;61.09;100870.41;5076150;28;20375;-69
2022/04/25 02:14:47;;;;;;;17.60;9.93;;;13.10;99.90;;;13.43;60.61;100866.94;5076072;28;20468;-69
2022/04/25 02:17:16;;;;;;;13.15;9.70;;;13.00;99.90;;;13.31;60.73;100852.06;5076298;28;20051;-69
2022/04/25 02:19:45;;;;;;;15.57;10.13;;;13.00;99.90;;;13.40;60.49;100854.56;5076253;28;20493;-69
2022/04/25 02:22:16;;;;;;;13.27;9.68;;;13.10;99.90;;;13.51;60.23;100865.88;5076121;28;20045;-69
2022/04/25 02:24:44;;;;;;;;;;;13.10;99.90;;;13.48;60.28;100855.31;5076337;28;20053;-69
2022/04/25 02:27:13;;;;;;;17.30;10.57;;;13.10;99.90;;;13.45;60.21;100835.91;5075802;28;19967;-69
2022/04/25 02:29:44;;;;;;;15.85;9.90;;;13.20;99.90;;;13.56;59.85;100856.06;5075852;28;20052;-69
2022/04/25 02:32:12;;;;;;;15.50;10.88;;;13.20;99.90;;;13.55;59.65;100853.41;5076045;28;20433;-68
2022/04/25 02:34:42;;;;;;;15.82;10.25;;;13.20;99.90;;;13.50;59.64;100858.81;5076072;28;20129;-69
2022/04/25 02:37:11;;;;;;;15.80;9.68;;;13.10;99.90;;;13.50;60.10;100861.47;5058002;28;20052;-69
2022/04/25 02:39:40;;;;;;;16.17;10.52;;;13.10;99.90;;;13.52;60.29;100853.47;5075604;28;20045;-69
2022/04/25 02:42:09;;;;;;;16.60;10.45;;;13.10;99.90;;;13.58;60.10;100851.59;5075553;28;20044;-69
2022/04/25 02:44:37;;;;;;;19.58;11.02;;;13.20;99.90;;;13.49;60.16;100846.44;5075338;28;20097;-69
2022/04/25 02:47:10;;;;;;;14.85;10.70;;;13.10;99.90;;;13.62;60.22;100852.44;5075760;28;20048;-68
2022/04/25 02:49:38;;;;;;;14.50;10.40;;;13.20;99.90;;;13.66;60.12;100848.81;5075174;28;20048;-69
2022/04/25 02:52:07;;;;;;;14.32;10.63;;;13.30;99.90;;;13.62;60.76;100841.78;5057758;28;20449;-69
2022/04/25 02:54:36;;;;;;;17.77;10.95;;;13.30;99.90;;;12.99;60.78;100737.44;5075585;28;20060;-69
2022/04/25 02:57:05;;;;;;;15.30;10.10;;;13.20;99.90;;;13.68;60.89;100851.44;5075289;28;20044;-69
2022/04/25 02:59:33;;;;;;;15.18;11.32;;;13.30;99.90;;;13.67;61.51;100845.25;5075337;28;20052;-69
2022/04/25 03:02:02;;;;;;;15.57;10.38;;;13.30;99.90;;;13.65;61.22;100852.34;5075180;28;20136;-69
2022/04/25 03:04:32;;;;;;;17.52;11.40;;;13.30;99.90;;;13.68;61.58;100847.00;5057489;28;20498;-69
2022/04/25 03:07:01;;;;;;;;;;;13.30;99.90;;;13.68;61.28;100838.16;5075820;28;20060;-70
2022/04/25 03:09:29;;;;;;;19.05;11.25;;;13.30;99.90;;;13.35;61.47;100807.72;5075093;28;19985;-68
2022/04/25 03:11:58;;;;;;;14.07;10.57;;;13.30;99.90;;;13.61;61.81;100852.47;5075069;28;20040;-69
2022/04/25 03:14:27;;;;;;;23.90;10.90;;;13.20;99.90;;;13.44;61.95;100835.00;5074971;28;20036;-69
2022/04/25 03:16:55;;;;;;;19.42;11.20;;;13.30;99.90;;;13.53;61.61;100825.97;5075160;28;20049;-69
2022/04/25 03:19:24;;;;;;;18.05;11.18;;;13.30;99.90;;;13.58;61.70;100840.97;5075103;28;20123;-69
2022/04/25 03:21:54;;;;;;;26.17;10.65;;;13.20;99.90;;;13.58;61.96;100848.94;5057132;28;20504;-69
2022/04/25 03:24:22;;;;;;;15.48;10.85;;;13.20;99.90;;;13.61;61.89;100837.38;5074792;28;20040;-69
2022/04/25 03:26:50;;;;;;;15.68;10.70;;;13.30;99.90;;;13.50;62.26;100832.25;5074695;28;20498;-69
2022/04/25 03:29:19;;;;;;;20.38;10.75;;;13.30;99.90;;;13.56;61.84;100837.47;5074908;28;20489;-69
2022/04/25 03:31:47;;;;;;;21.67;11.13;;;13.30;99.90;;;13.58;62.38;100842.75;5074918;28;20049;-69
2022/04/25 03:34:16;;;;;;;19.23;10.25;;;13.20;99.90;;;13.62;62.06;100846.22;5074870;28;20072;-69
2022/04/25 03:36:45;;;;;;;17.05;10.50;;;13.20;99.90;;;13.50;62.78;100842.00;5074788;28;20076;-69
2022/04/25 03:39:16;;;;;;;19.37;10.50;;;13.20;99.90;;;13.54;62.66;100844.59;5074691;28;20042;-69
2022/04/25 03:41:44;;;;;;;21.08;10.05;;;13.20;99.90;;;13.54;62.58;100844.59;5074444;28;20365;-69
2022/04/25 03:44:12;;;;;;;15.18;9.75;;;13.10;99.90;;;13.56;62.97;100844.56;5074414;28;20138;-69
2022/04/25 03:46:41;;;;;;;20.55;10.50;;;13.20;99.90;;;13.45;62.97;100831.44;5074293;28;20494;-69
2022/04/25 03:49:09;;;;;;;17.10;10.40;;;13.20;99.90;;;13.68;62.76;100840.81;5074259;28;20573;-69
2022/04/25 03:51:38;;;;;;;18.00;10.32;;;13.30;99.90;;;13.73;62.57;100846.91;5074804;28;20143;-69
2022/04/25 03:54:06;;;;;;;20.20;10.73;;;13.30;99.90;;;13.69;62.27;100848.75;5073942;28;20123;-69
2022/04/25 03:59:30;;;;;;;16.90;10.10;;;13.30;99.90;;;13.61;63.04;100853.31;5038311;28;20106;-69
2022/04/25 04:01:58;;;;;;;15.65;10.15;;;13.20;99.90;;;13.71;62.97;100856.69;5056292;28;20398;-69
2022/04/25 04:04:27;;;;;;;21.10;10.82;;;13.30;99.90;;;13.68;62.51;100854.97;5073999;28;20055;-67
2022/04/25 04:06:57;;;;;;;15.40;10.13;;;13.30;99.90;;;13.50;62.70;100832.25;5073846;28;20037;-68
2022/04/25 04:12:13;;;;;;;19.05;10.70;;;13.20;99.90;;;13.57;63.36;100852.50;5074311;28;20052;-68
2022/04/25 04:14:41;;;;;;;21.73;11.98;;;13.20;99.90;;;13.42;63.36;100831.50;5073758;28;20418;-71
2022/04/25 04:17:10;;;;;;;19.45;10.98;;;13.20;99.90;;;13.58;63.36;100856.03;5073807;28;20124;-70
2022/04/25 04:19:40;;;;;;;18.60;11.35;;;13.20;99.90;;;13.52;63.65;100864.09;5073841;28;20071;-69
2022/04/25 04:22:09;;;;;;;22.88;11.75;;;13.10;99.90;;;13.43;64.47;100857.16;5074346;28;20036;-69
2022/04/25 04:24:38;;;;;;;22.98;11.77;;;13.10;99.90;;;13.48;64.38;100865.06;5073550;28;20052;-69
2022/04/25 04:27:06;;;;;;;21.10;11.27;;;13.10;99.90;;;13.49;64.23;100857.06;5073509;28;20040;-69
2022/04/25 04:29:36;;;;;;;22.20;12.02;;;13.10;99.90;;;13.47;64.64;100864.16;5073739;28;20048;-70
2022/04/25 04:32:06;;;;;;;22.73;11.98;;;13.10;99.90;;;13.51;64.59;100849.09;5073723;28;20404;-70
2022/04/25 04:34:36;;;;;;;21.33;12.20;;;13.20;99.90;;;13.53;64.72;100866.72;5073699;28;20068;-69
2022/04/25 04:37:06;;;;;;;19.27;11.53;;;13.10;99.90;;;13.46;65.21;100872.19;5073445;28;20041;-69
2022/04/25 04:39:34;;;;;;;24.08;12.50;;;13.10;99.90;;;13.46;65.53;100870.41;5073185;28;20764;-70
2022/04/25 04:42:03;;;;;;;21.33;12.68;;;13.10;99.90;;;13.50;65.53;100874.78;5073353;28;20086;-70
2022/04/25 04:44:31;;;;;;;18.35;12.32;;;13.10;99.90;;;13.50;65.54;100874.78;5073203;28;20072;-69
2022/04/25 04:47:02;;;;;;;19.33;11.25;;;13.10;99.90;;;13.56;65.42;100879.09;5073837;28;20048;-69
2022/04/25 04:49:30;;;;;;;19.27;11.98;;;13.20;99.90;;;13.59;65.55;100885.25;5055490;28;20049;-69
2022/04/25 04:51:58;;;;;;;16.83;11.77;;;13.20;99.90;;;13.64;65.66;100887.84;5033286;28;20076;-71
2022/04/25 04:54:27;;;;;;;20.58;11.52;;;13.20;99.90;;;13.61;65.59;100890.53;5033319;28;20115;-69
2022/04/25 04:56:56;;;;;;;18.13;12.65;;;13.20;99.90;;;13.58;65.92;100896.78;5033142;28;20045;-69
2022/04/25 04:59:24;;;;;;;21.77;12.48;;;13.20;99.90;;;13.54;66.07;100894.19;5048729;28;20049;-70
2022/04/25 05:01:52;;;;;;;18.00;12.50;;;13.20;99.90;;;13.60;66.43;100886.13;5033387;28;20045;-69
2022/04/25 05:04:22;;;;;;;20.95;13.43;;;13.20;99.90;;;13.40;66.52;100858.97;5033373;28;20053;-70
2022/04/25 05:06:50;;;;;;;22.58;13.40;;;13.20;99.90;;;13.66;66.07;100883.38;5033037;28;20128;-69
2022/04/25 05:09:19;;;;;;;20.88;13.13;;;13.30;99.90;;;13.70;66.52;100894.81;5033216;28;20049;-69
2022/04/25 05:11:47;;;;;;;20.10;13.57;;;13.30;99.90;;;13.73;66.46;100895.63;5033073;28;20033;-69
2022/04/25 05:14:15;;;;;;;25.42;14.20;;;13.40;99.90;;;13.72;67.00;100898.34;5033467;28;20492;-69
2022/04/25 05:16:44;;;;;;;22.55;13.90;;;13.40;99.90;;;13.74;67.17;100904.50;5033144;28;20041;-69
2022/04/25 05:19:12;;;;;;;20.92;13.30;;;13.40;99.90;;;13.69;67.08;100896.59;5033106;28;20474;-69
2022/04/25 05:21:42;;;;;;;25.77;14.57;;;13.30;99.90;;;13.85;66.87;100898.09;5032884;28;20450;-70
2022/04/25 05:24:10;;;;;;;22.52;14.32;;;13.40;99.90;;;13.88;67.13;100895.38;5032953;28;20096;-69
2022/04/25 05:26:39;;;;;;;21.73;14.75;;;13.50;99.90;;;13.95;67.12;100899.69;5033154;28;20041;-69
2022/04/25 05:29:14;;;;;;;19.88;13.70;;;13.60;99.90;;;14.05;67.15;100903.06;5032875;28;20045;-69
2022/04/25 05:31:42;;;;;;;26.02;14.73;;;13.70;99.90;;;14.00;66.79;100883.63;5032881;28;20053;-69
2022/04/25 05:34:14;;;;;;;26.23;15.13;;;13.70;99.90;;;14.07;66.91;100888.81;5032804;28;20043;-68
2022/04/25 05:36:44;;;;;;;20.65;14.73;;;13.80;99.90;;;14.20;66.25;100914.31;5032728;28;20455;-69
2022/04/25 05:39:12;;;;;;;22.10;14.63;;;13.80;99.90;;;14.20;65.96;100918.75;5033580;28;20107;-69
2022/04/25 05:41:42;;;;;;;24.35;15.02;;;13.80;99.90;;;14.21;65.64;100923.16;5033241;28;20092;-69
2022/04/25 05:44:19;;;;;;;21.35;14.65;;;13.80;99.90;;;14.10;65.94;100928.69;5032687;28;20053;-68
2022/04/25 05:46:47;;;;;;;26.27;15.00;;;13.80;99.90;;;13.69;66.33;100878.00;5032751;28;20514;-69
2022/04/25 05:52:05;;;;;;;24.60;14.80;;;13.70;99.90;;;14.13;66.97;100935.75;5072037;28;20063;-70
2022/04/25 05:54:35;;;;;;;20.48;14.20;;;13.70;99.90;;;14.18;66.30;100934.75;5073116;28;20059;-69
2022/04/25 05:57:04;;;;;;;21.15;15.25;;;13.80;99.90;;;14.17;65.71;100938.28;5072707;28;20457;-70
2022/04/25 05:59:32;;;;;;;22.35;14.50;;;13.80;99.90;;;14.09;65.77;100934.03;5072361;28;20056;-69
2022/04/25 06:02:01;;;;;;;21.50;15.57;;;13.80;99.90;;;14.22;65.54;100946.19;5072265;28;20384;-69
2022/04/25 06:04:30;;;;;;;24.48;15.85;;;13.80;99.90;;;14.31;65.49;100943.41;5072334;28;20044;-69
2022/04/25 06:06:59;;;;;;;25.73;15.18;;;13.90;99.90;;;14.36;65.15;100934.41;5072384;28;20110;-70
2022/04/25 06:09:28;;;;;;;21.08;15.15;;;14.00;99.90;;;14.27;65.38;100939.91;5054570;28;20470;-69
2022/04/25 06:11:58;;;;;;;24.50;14.57;;;13.90;99.90;;;14.09;65.04;100923.41;5072437;28;20045;-69
2022/04/25 06:14:27;;;;;;;22.42;15.35;;;13.90;99.90;;;14.07;65.15;100925.19;5054638;28;20135;-69
2022/04/25 06:16:55;;;;;;;20.55;15.88;;;13.90;99.90;;;14.14;65.42;100948.13;5072866;28;20098;-69
2022/04/25 06:19:24;;;;;;;25.42;16.05;;;13.80;99.90;;;14.06;65.82;100953.56;5075188;28;20513;-69
2022/04/25 06:21:52;;;;;;;21.10;14.60;;;13.70;99.90;;;13.71;66.25;100931.13;5076219;28;20040;-70
2022/04/25 06:24:21;;;;;;;24.73;15.95;;;13.60;99.90;;;13.97;66.37;100963.50;5076075;28;20072;-69
2022/04/25 06:26:52;;;;;;;23.35;16.30;;;13.60;99.90;;;13.68;66.82;100957.75;5058281;28;20067;-69
2022/04/25 06:29:21;;;;;;;21.52;16.38;;;13.40;99.90;;;13.71;67.34;100960.38;5075738;28;20036;-69
2022/04/25 06:31:49;;;;;;;23.60;16.50;;;13.40;99.90;;;13.77;67.63;100958.50;5075686;28;20068;-69
2022/04/25 06:34:18;;;;;;;23.52;16.23;;;13.40;99.90;;;13.78;67.43;100964.69;5075625;28;20040;-68
2022/04/25 06:36:50;;;;;;;21.40;15.77;;;13.40;99.90;;;13.81;67.59;100967.28;5058044;28;20102;-69
2022/04/25 06:39:21;;;;;;;25.40;17.38;;;13.40;99.90;;;13.80;67.68;100963.75;5075861;28;20052;-69
2022/04/25 06:41:50;;;;;;;27.75;17.20;;;13.50;99.90;;;13.67;68.00;100953.34;5075530;28;20098;-66
2022/04/25 06:44:19;;;;;;;24.05;17.23;;;13.40;99.90;;;13.53;68.01;100938.50;5057814;28;20040;-68
2022/04/25 06:46:51;;;;;;;21.45;16.77;;;13.40;99.90;;;13.73;68.25;100967.41;5075686;28;20140;-67
2022/04/25 06:49:23;;;;;;;24.80;16.45;;;13.40;99.90;;;13.75;68.13;100981.56;5075358;28;20048;-67
2022/04/25 06:51:53;;;;;;;26.90;16.73;;;13.40;99.90;;;12.51;68.20;100770.91;5075639;28;20494;-68
2022/04/25 06:54:22;;;;;;;27.45;16.95;;;13.40;99.90;;;13.58;68.83;100979.19;5057971;28;20306;-67
2022/04/25 06:56:50;;;;;;;3.53;3.42;;;13.30;99.90;;;12.85;68.99;100843.00;5075233;28;20536;-65
2022/04/25 06:59:21;;;;;;;3.95;3.78;;;13.30;99.90;;;13.57;68.99;100982.72;5075424;28;20445;-68
2022/04/25 07:01:50;;;;;;;;;;;13.30;99.90;;;13.41;69.24;100965.22;5075904;28;20052;-69
2022/04/25 07:04:19;;;;;;;3.55;3.45;;;13.30;99.90;;;13.54;69.63;100977.47;5075631;28;19920;-70
2022/04/25 07:06:49;;;;;;;8.82;4.75;;;13.30;99.90;;;13.38;69.44;100964.41;5075361;28;20102;-71
2022/04/25 07:09:19;;;;;;;4.95;4.65;;;13.30;99.90;;;13.53;70.34;100991.63;5075033;28;20037;-71
2022/04/25 07:11:47;;;;;;;3.50;3.40;;;13.30;99.90;;;13.49;70.92;100984.59;5075307;28;20431;-71
2022/04/25 07:14:18;;;;;;;4.82;4.43;;;13.20;99.90;;;13.49;71.09;100989.06;5075195;28;20068;-71
2022/04/25 07:16:51;;;;;;;3.70;3.58;;;13.20;99.90;;;13.48;70.96;100993.50;5075249;28;20437;-64
2022/04/25 07:19:22;;;;;;;3.95;3.75;;;13.20;99.90;;;13.52;71.28;100997.88;5075237;28;20052;-65
2022/04/25 07:30:10;;;;;;;4.05;3.85;;;13.30;99.90;;;13.40;72.56;100982.09;5055897;28;20045;-64
2022/04/25 07:32:40;;;;;;;3.87;3.67;;;13.30;99.90;;;13.61;72.43;101004.81;5075175;28;20052;-65
2022/04/25 07:35:10;;;;;;;3.67;3.55;;;13.30;99.90;;;13.30;72.96;100953.00;5075179;28;20040;-63
2022/04/25 07:37:39;;;;;;;4.05;3.85;;;13.30;99.90;;;13.56;72.95;101006.66;5074617;28;20032;-65
2022/04/25 07:40:09;;;;;;;4.70;4.47;;;13.30;99.90;;;13.47;73.21;101005.00;5074654;28;20045;-63
2022/04/25 07:42:39;;;;;;;4.63;4.32;;;13.20;99.90;;;13.43;73.08;101011.25;5074649;28;20053;-66
2022/04/25 07:45:09;;;;;;;3.60;3.50;;;13.10;99.90;;;13.39;73.98;101014.00;5074640;28;20051;-66
2022/04/25 07:47:39;;;;;;;5.60;5.30;;;13.20;99.90;;;13.31;74.16;101027.41;5073600;28;20048;-66
2022/04/25 07:50:10;;;;;;;3.75;3.60;;;13.10;99.90;;;13.38;74.36;101018.44;5074017;28;20150;-66
2022/04/25 07:52:39;;;;;;;3.50;3.40;;;13.10;99.90;;;13.29;73.62;101017.69;5074325;28;20044;-66
2022/04/25 07:55:09;;;;;;;4.10;3.90;;;13.10;99.90;;;13.14;73.87;101002.78;5074151;28;20040;-65
2022/04/25 07:57:37;;;;;;;3.90;3.70;;;13.00;99.90;;;13.24;74.02;101025.69;5074746;28;20052;-66
2022/04/25 08:00:08;;;;;;;3.83;3.63;;;12.90;99.90;;;13.30;73.96;101014.09;5073928;28;20040;-66
2022/04/25 08:02:36;;;;;;;3.83;3.63;;;13.00;99.90;;;13.28;74.15;101011.47;5074182;28;20513;-66
2022/04/25 08:05:05;;;;;;;3.40;3.30;;;13.00;99.90;;;13.30;74.08;101022.06;5073981;28;20098;-66
2022/04/25 08:07:36;;;;;;;3.78;3.60;;;13.00;99.90;;;13.39;74.22;101019.31;5073886;28;20045;-66
2022/04/25 08:10:07;;;;;;;4.05;3.85;;;13.10;99.90;;;13.43;74.04;101016.56;5074016;28;20043;-65
2022/04/25 08:18:07;;;;;;;3.90;3.70;;;13.30;99.90;;;13.61;74.57;101031.38;5073749;28;20090;-66
2022/04/25 08:20:37;;;;;;;3.38;3.28;;;13.40;99.90;;;13.69;74.71;101034.81;5074189;28;20102;-66
2022/04/25 08:23:09;;;;;;;3.45;3.35;;;13.40;99.90;;;13.65;75.35;101037.53;5072858;28;20142;-66
2022/04/25 08:25:39;;;;;;;4.45;4.15;;;13.40;99.90;;;13.70;75.40;101041.03;5073870;28;20040;-66
2022/04/25 08:28:09;;;;;;;3.72;3.55;;;13.40;99.90;;;13.79;75.37;101048.84;5073381;28;20131;-66
2022/04/25 08:30:38;;;;;;;4.82;4.50;;;13.50;99.90;;;13.68;75.16;101040.16;5073737;28;20136;-66
2022/04/25 08:33:11;;;;;;;3.63;3.50;;;13.50;99.90;;;13.54;75.36;101020.00;5073410;28;20105;-66
2022/04/25 08:35:39;;;;;;;4.18;3.97;;;13.40;99.90;;;13.77;74.74;101050.66;5073695;28;20059;-66
2022/04/25 08:38:09;;;;;;;4.32;4.13;;;13.50;99.90;;;13.74;74.72;101056.94;5073388;28;20078;-66
2022/04/25 08:40:40;;;;;;;4.90;4.50;;;13.50;99.90;;;13.69;74.46;101056.09;5073362;28;20064;-66
2022/04/25 08:43:09;;;;;;;3.50;3.40;;;13.50;99.90;;;13.69;74.52;101060.53;5073646;28;20190;-66
2022/04/25 08:45:40;;;;;;;3.40;3.30;;;13.40;99.90;;;13.70;74.22;101063.19;5073297;28;20410;-66
2022/04/25 08:48:09;;;;;;;3.60;3.40;;;13.40;99.90;;;13.61;74.06;101052.66;5073251;28;20048;-66
2022/04/25 08:50:40;;;;;;;3.83;3.63;;;13.50;99.90;;;13.66;73.95;101063.22;5073191;28;20438;-66
2022/04/25 08:53:13;;;;;;;3.38;3.28;;;13.40;99.90;;;13.64;73.95;101065.94;5073232;28;20421;-67
2022/04/25 08:55:41;;;;;;;3.58;3.47;;;13.40;99.90;;;13.74;73.80;101067.56;5071843;28;20406;-66
2022/04/25 08:58:12;;;;;;;3.78;3.58;;;13.40;99.90;;;13.75;73.72;101068.41;5073364;28;20090;-66
2022/04/25 09:00:42;;;;;;;3.35;3.25;;;13.50;99.90;;;13.80;73.89;101078.06;5073683;28;20044;-66
2022/04/25 09:03:17;;;;;;;3.95;3.65;;;13.50;99.90;;;13.75;74.56;101076.38;5055708;28;20052;-66
2022/04/25 09:05:46;;;;;;;3.25;3.15;;;13.50;99.90;;;13.77;74.82;101080.78;5073288;28;20040;-66
2022/04/25 09:08:15;;;;;;;3.30;3.20;;;13.50;99.90;;;13.76;75.22;101076.41;5073014;28;20490;-66
2022/04/25 09:10:46;;;;;;;3.88;3.67;;;13.50;99.90;;;13.64;74.84;101068.59;5055308;28;20072;-66
2022/04/25 09:13:15;;;;;;;3.60;3.50;;;13.50;99.90;;;13.80;75.42;101080.72;5073053;28;20055;-66
2022/04/25 09:15:43;;;;;;;3.97;3.78;;;13.50;99.90;;;13.77;75.50;101085.22;5072920;28;20048;-66
2022/04/25 09:18:12;;;;;;;3.30;3.20;;;13.50;99.90;;;13.65;75.14;101066.78;5073144;28;20048;-66
2022/04/25 09:20:44;;;;;;;5.03;4.80;;;13.50;99.90;;;13.86;74.72;101079.78;5073237;28;20044;-66
2022/04/25 09:23:22;;;;;;;4.22;4.03;;;13.50;99.90;;;13.65;75.20;101061.47;5055277;28;20414;-66
2022/04/25 09:26:12;;;;;;;3.38;3.28;;;13.50;99.90;;;13.63;74.77;101050.84;5073468;28;20045;-66
2022/04/25 09:28:49;;;;;;;11.38;10.68;;;13.50;99.90;;;13.86;75.12;101085.97;5072936;28;20040;-66
2022/04/25 09:31:21;;;;;;;5.45;5.15;;;13.60;99.90;;;13.91;75.27;101094.78;5073001;28;20079;-66
2022/04/25 09:33:50;;;;;;;4.00;3.80;;;13.60;99.90;;;13.85;74.83;101088.66;5072859;28;20048;-65
2022/04/25 09:36:20;;;;;;;3.75;3.58;;;13.60;99.90;;;13.92;75.48;101090.31;5072857;28;20471;-66
2022/04/25 09:38:50;;;;;;;4.38;4.18;;;13.60;99.90;;;13.82;74.50;101083.41;5072772;28;20044;-66
2022/04/25 09:41:18;;;;;;;3.63;3.53;;;13.60;99.90;;;13.87;74.75;101081.53;5073528;28;20546;-66
2022/04/25 09:43:59;;;;;;;5.00;4.60;;;13.60;99.90;;;13.88;74.58;101085.97;5073203;28;20041;-66
2022/04/25 09:46:30;;;;;;;3.20;3.10;;;13.60;99.90;;;13.89;74.39;101070.00;5072717;28;20521;-66
2022/04/25 09:49:04;;;;;;;4.72;4.32;;;13.70;99.90;;;14.05;74.03;101099.91;5072844;28;20045;-66
2022/04/25 09:51:32;;;;;;;3.20;3.10;;;13.80;99.90;;;14.05;74.67;101097.25;5072605;28;20102;-66
2022/04/25 09:54:04;;;;;;;4.18;3.97;;;13.80;99.90;;;14.11;74.67;101103.31;5075090;28;20128;-66
2022/04/25 09:56:34;;;;;;;3.50;3.40;;;13.90;99.90;;;14.15;73.84;101104.19;5076498;28;20040;-66
2022/04/25 09:59:08;;;;;;;3.60;3.50;;;13.90;99.90;;;14.23;73.92;101102.25;5076514;28;20047;-66
2022/04/25 10:01:39;;;;;;;3.30;3.20;;;13.90;99.90;;;14.29;73.44;101105.75;5076686;28;20102;-66
2022/04/25 10:04:32;;;;;;;4.15;3.95;;;14.00;99.90;;;14.28;73.41;101112.00;5076797;28;20052;-66
2022/04/25 10:07:03;;;;;;;4.15;3.95;;;14.00;99.90;;;14.14;74.05;101108.63;5076457;28;20068;-66
2022/04/25 10:09:34;;;;;;;3.55;3.45;;;14.00;99.90;;;14.13;73.68;101117.47;5076723;28;20041;-66
2022/04/25 10:12:06;;;;;;;3.53;3.42;;;13.90;99.90;;;14.13;74.26;101117.47;5076379;28;20040;-66
2022/04/25 10:14:35;;;;;;;3.60;3.50;;;13.90;99.90;;;14.17;74.17;101118.31;5076172;28;20052;-68
2022/04/25 10:17:04;;;;;;;3.95;3.75;;;13.90;99.90;;;13.87;73.96;101087.75;5076408;28;20041;-66
2022/04/25 10:19:33;;;;;;;4.20;4.00;;;13.80;99.90;;;13.97;73.85;101121.28;5076229;28;20053;-66
2022/04/25 10:22:03;;;;;;;3.77;3.57;;;13.70;99.90;;;13.83;73.80;101099.31;5076283;28;20517;-66
2022/04/25 10:24:33;;;;;;;4.90;4.63;;;13.70;99.90;;;13.91;73.50;101136.44;5076152;28;20302;-66
2022/04/25 10:27:10;;;;;;;3.33;3.22;;;13.70;99.90;;;13.82;73.50;101120.63;5076356;28;20075;-66
2022/04/25 10:29:46;;;;;;;8.65;7.47;;;13.60;99.90;;;13.85;73.62;101129.44;5076341;28;20497;-66
2022/04/25 10:32:19;;;;;;;3.38;3.28;;;13.60;99.90;;;13.80;73.83;101133.91;5075756;28;20509;-68
2022/04/25 10:34:51;;;;;;;4.75;4.45;;;13.60;99.90;;;13.87;73.97;101137.38;5075796;28;20070;-65
2022/04/25 10:37:31;;;;;;;4.07;3.88;;;13.60;99.90;;;11.69;73.69;100765.75;5075723;28;20043;-65
2022/04/25 10:40:03;;;;;;;3.50;3.40;;;13.60;99.90;;;13.76;73.61;101141.97;5075682;28;20101;-66
2022/04/25 10:45:18;;;;;;;3.17;3.08;;;13.50;99.90;;;13.73;73.15;101149.97;5075790;28;20444;-66